Time;durP1;ratioP1;P1;durP2;ratioP2;P2;SDS_P1;SDS_P2;PMS_P1;PMS_P2;Temp;Humidity;BMP_temperature;BMP_pressure;BME280_temperature;BME280_humidity;BME280_pressure;Samples;Min_cycle;Max_cycle;Signal;HPM_P1;HPM_P2
2023/06/04 00:00:34;;;;;;;2.90;1.30;;;;;;;6.55;61.72;101131.05;105018;1262;73771;-61
2023/06/04 00:03:22;;;;;;;3.60;1.60;;;;;;;6.53;61.86;101131.73;105045;1262;69205;-61
2023/06/04 00:05:51;;;;;;;3.40;1.70;;;;;;;6.51;62.07;101129.84;105065;1262;69121;-61
2023/06/04 00:08:19;;;;;;;3.00;1.60;;;;;;;6.50;62.12;101127.09;105068;1261;74791;-61
2023/06/04 00:10:47;;;;;;;3.30;1.30;;;;;;;6.48;62.25;101128.84;105143;1260;82209;-61
2023/06/04 00:13:16;;;;;;;3.50;1.70;;;;;;;6.45;62.40;101126.08;104978;1265;72579;-61
2023/06/04 00:15:44;;;;;;;5.80;2.20;;;;;;;6.43;62.60;101125.77;105038;1260;69078;-61
2023/06/04 00:18:13;;;;;;;4.90;1.70;;;;;;;6.41;62.46;101123.68;105051;1262;69103;-61
2023/06/04 00:20:42;;;;;;;3.90;1.80;;;;;;;6.38;62.58;101131.52;105121;1263;73853;-61
2023/06/04 00:23:10;;;;;;;4.00;1.60;;;;;;;6.36;62.71;101132.05;105108;1259;82922;-61
2023/06/04 00:25:38;;;;;;;2.80;1.40;;;;;;;6.33;62.83;101128.60;105062;1260;73862;-61
2023/06/04 00:28:06;;;;;;;4.30;1.90;;;;;;;6.30;62.99;101133.33;105096;1263;69131;-61
2023/06/04 00:30:35;;;;;;;4.40;1.70;;;;;;;6.26;63.03;101130.91;105112;1262;69063;-61
2023/06/04 00:33:03;;;;;;;2.60;1.70;;;;;;;6.25;63.16;101127.45;105086;1262;74776;-61
2023/06/04 00:35:32;;;;;;;3.60;2.00;;;;;;;6.25;63.44;101127.10;105018;1263;83380;-61
2023/06/04 00:38:00;;;;;;;3.40;1.70;;;;;;;6.26;63.42;101126.92;105135;1263;72243;-61
2023/06/04 00:40:29;;;;;;;4.00;1.80;;;;;;;6.31;63.69;101126.73;105045;1263;69141;-61
2023/06/04 00:42:57;;;;;;;3.00;1.60;;;;;;;6.38;63.83;101121.79;105060;1263;69016;-61
2023/06/04 00:45:26;;;;;;;3.30;1.70;;;;;;;6.42;63.82;101120.39;105016;1266;74504;-61
2023/06/04 00:47:55;;;;;;;3.20;1.80;;;;;;;6.44;63.60;101118.80;105042;1265;83331;-61
2023/06/04 00:50:24;;;;;;;5.00;1.80;;;;;;;6.42;63.75;101115.16;105050;1265;73933;-61
2023/06/04 00:52:52;;;;;;;3.00;1.90;;;;;;;6.43;63.93;101115.67;105150;1260;69141;-61
2023/06/04 00:55:21;;;;;;;6.20;1.90;;;;;;;6.44;63.82;101114.27;105035;1263;69110;-61
2023/06/04 00:57:49;;;;;;;4.20;1.90;;;;;;;6.43;63.69;101114.64;105120;1263;75045;-61
2023/06/04 01:00:18;;;;;;;3.30;1.50;;;;;;;6.39;63.59;101111.73;105064;1264;82520;-61
2023/06/04 01:02:51;;;;;;;3.40;1.80;;;;;;;6.35;63.58;101112.28;105085;1263;73740;-61
2023/06/04 01:05:59;;;;;;;3.30;1.90;;;;;;;6.31;63.77;101113.70;105056;1263;69188;-61
2023/06/04 01:08:27;;;;;;;5.20;2.00;;;;;;;6.27;63.98;101109.92;105146;1262;69201;-61
2023/06/04 01:10:56;;;;;;;5.00;2.30;;;;;;;6.24;64.00;101113.92;104968;1264;75047;-61
2023/06/04 01:13:24;;;;;;;3.00;2.00;;;;;;;6.22;64.02;101113.77;105092;1263;83581;-61
2023/06/04 01:15:52;;;;;;;6.50;2.50;;;;;;;6.19;64.20;101111.54;105040;1262;73997;-61
2023/06/04 01:18:27;;;;;;;7.40;2.20;;;;;;;6.15;64.27;101113.14;104960;1264;69180;-61
2023/06/04 01:21:03;;;;;;;4.50;2.30;;;;;;;6.11;64.36;101110.72;105038;1262;69141;-61
2023/06/04 01:23:58;;;;;;;5.00;2.40;;;;;;;6.08;64.51;101106.58;105052;1261;73945;-62
2023/06/04 01:26:31;;;;;;;7.90;2.20;;;;;;;6.06;64.40;101107.98;105062;1263;83105;-62
2023/06/04 01:29:00;;;;;;;4.50;2.30;;;;;;;6.05;64.74;101107.65;105081;1260;72865;-62
2023/06/04 01:31:32;;;;;;;4.80;2.30;;;;;;;6.01;64.66;101107.67;105073;1262;69202;-62
2023/06/04 01:34:01;;;;;;;4.60;2.20;;;;;;;5.96;64.59;101107.70;105027;1265;69776;-62
2023/06/04 01:36:30;;;;;;;3.70;2.00;;;;;;;5.92;64.71;101111.35;105082;1263;74859;-62
2023/06/04 01:39:00;;;;;;;3.90;2.30;;;;;;;5.89;64.96;101113.45;105053;1260;83394;-62
2023/06/04 01:41:28;;;;;;;5.10;1.90;;;;;;;5.84;64.92;101110.53;105047;1263;72723;-61
2023/06/04 01:43:57;;;;;;;5.80;2.20;;;;;;;5.79;64.99;101106.74;105103;1263;69326;-62
2023/06/04 01:46:25;;;;;;;7.00;2.60;;;;;;;5.72;65.03;101102.80;105016;1260;69201;-62
2023/06/04 01:48:53;;;;;;;4.50;2.70;;;;;;;5.67;65.12;101104.21;105036;1262;74908;-61
2023/06/04 01:51:22;;;;;;;4.80;2.70;;;;;;;5.62;65.08;101105.63;105106;1261;83206;-62
2023/06/04 01:53:50;;;;;;;5.70;2.30;;;;;;;5.57;65.10;101103.22;105107;1264;72373;-62
2023/06/04 01:56:20;;;;;;;4.70;2.50;;;;;;;5.53;65.28;101104.80;105050;1260;69158;-62
2023/06/04 01:58:49;;;;;;;3.30;2.30;;;;;;;5.51;65.48;101104.13;105053;1263;69334;-62
2023/06/04 02:01:19;;;;;;;4.80;2.50;;;;;;;5.49;65.70;101102.75;105122;1262;74637;-63
2023/06/04 02:03:48;;;;;;;4.40;2.60;;;;;;;5.48;65.75;101102.40;105057;1261;83253;-62
2023/06/04 02:06:16;;;;;;;5.40;2.70;;;;;;;5.43;65.69;101104.51;105024;1263;73862;-62
2023/06/04 02:08:45;;;;;;;4.40;2.10;;;;;;;5.39;65.82;101103.83;104936;1260;69171;-62
2023/06/04 02:11:13;;;;;;;5.00;2.60;;;;;;;5.35;65.95;101104.02;105125;1266;69169;-62
2023/06/04 02:13:41;;;;;;;5.60;2.70;;;;;;;5.34;66.24;101106.80;105036;1266;73912;-62
2023/06/04 02:16:10;;;;;;;5.70;2.80;;;;;;;5.36;66.54;101103.15;105094;1262;83306;-62
2023/06/04 02:18:38;;;;;;;7.90;3.00;;;;;;;5.36;66.52;101100.90;105085;1263;72781;-62
2023/06/04 02:21:07;;;;;;;3.70;2.20;;;;;;;5.34;66.68;101097.96;105078;1259;69189;-62
2023/06/04 02:23:36;;;;;;;4.70;2.60;;;;;;;5.35;66.76;101097.44;105147;1263;69186;-62
2023/06/04 02:26:06;;;;;;;5.20;2.90;;;;;;;5.32;66.68;101096.41;105126;1262;74771;-62
2023/06/04 02:28:34;;;;;;;5.70;3.00;;;;;;;5.28;66.67;101097.30;105044;1262;82517;-62
2023/06/04 02:31:02;;;;;;;5.70;2.70;;;;;;;5.26;66.93;101097.46;105093;1263;72406;-62
2023/06/04 02:33:31;;;;;;;5.00;2.80;;;;;;;5.24;66.88;101097.98;105034;1272;69211;-62
2023/06/04 02:36:00;;;;;;;5.00;2.50;;;;;;;5.23;66.93;101099.56;105016;1262;69443;-62
2023/06/04 02:38:28;;;;;;;6.20;2.70;;;;;;;5.24;67.10;101096.97;105097;1260;74060;-62
2023/06/04 02:40:57;;;;;;;5.10;2.40;;;;;;;5.25;67.13;101098.69;105054;1262;83327;-62
2023/06/04 02:43:25;;;;;;;6.20;2.40;;;;;;;5.21;67.02;101104.25;105043;1262;72217;-62
2023/06/04 02:45:53;;;;;;;6.00;2.70;;;;;;;5.18;67.20;101104.59;104964;1263;69112;-62
2023/06/04 02:48:21;;;;;;;7.20;2.50;;;;;;;5.19;67.24;101102.70;105014;1263;69244;-62
2023/06/04 02:50:50;;;;;;;7.50;2.70;;;;;;;5.15;67.20;101107.73;105092;1263;74994;-62
2023/06/04 02:53:18;;;;;;;4.90;2.50;;;;;;;5.13;67.51;101110.69;105098;1264;83581;-62
2023/06/04 02:55:46;;;;;;;5.70;2.60;;;;;;;5.12;67.51;101105.66;105029;1263;72746;-62
2023/06/04 02:58:15;;;;;;;5.40;2.70;;;;;;;5.10;67.62;101110.88;105075;1263;69244;-64
2023/06/04 03:00:45;;;;;;;6.40;2.70;;;;;;;5.14;67.79;101107.38;105127;1263;69218;-62
2023/06/04 03:03:13;;;;;;;6.00;2.50;;;;;;;5.12;67.73;101107.05;105064;1265;74337;-63
2023/06/04 03:05:42;;;;;;;4.20;2.40;;;;;;;5.09;67.76;101105.85;104978;1266;83815;-65
2023/06/04 03:08:11;;;;;;;5.30;2.50;;;;;;;5.08;68.05;101108.97;105105;1264;72731;-65
2023/06/04 03:10:39;;;;;;;4.90;2.80;;;;;;;5.07;68.10;101107.41;105126;1274;69240;-62
2023/06/04 03:13:08;;;;;;;5.30;2.60;;;;;;;5.05;68.18;101110.70;105134;1266;69276;-62
2023/06/04 03:15:38;;;;;;;4.00;2.40;;;;;;;5.05;68.18;101112.45;105144;1260;74918;-63
2023/06/04 03:18:07;;;;;;;4.50;2.80;;;;;;;5.06;68.48;101119.55;105141;1260;82540;-65
2023/06/04 03:20:37;;;;;;;4.50;2.50;;;;;;;5.08;68.72;101120.05;105117;1260;73781;-63
2023/06/04 03:23:06;;;;;;;5.30;2.70;;;;;;;5.11;68.86;101122.30;105073;1261;69241;-64
2023/06/04 03:25:35;;;;;;;8.10;2.60;;;;;;;5.13;68.86;101122.83;105074;1265;69192;-63
2023/06/04 03:28:03;;;;;;;7.10;2.50;;;;;;;5.16;68.99;101125.77;104891;1267;73884;-63
2023/06/04 03:30:33;;;;;;;6.50;2.40;;;;;;;5.19;69.14;101124.88;104903;1265;83610;-63
2023/06/04 03:33:03;;;;;;;6.40;2.80;;;;;;;5.23;69.37;101125.04;104972;1264;72840;-63
2023/06/04 03:35:33;;;;;;;5.30;2.30;;;;;;;5.27;69.51;101125.89;104977;1261;69144;-63
2023/06/04 03:38:01;;;;;;;4.20;2.40;;;;;;;5.33;69.42;101126.39;104772;1266;69173;-63
2023/06/04 03:40:31;;;;;;;5.30;2.50;;;;;;;5.37;69.61;101127.77;105025;1266;74342;-63
2023/06/04 03:43:00;;;;;;;6.30;2.40;;;;;;;5.42;69.70;101130.86;104992;1273;83551;-63
2023/06/04 03:45:31;;;;;;;5.40;2.50;;;;;;;5.46;69.81;101128.94;104961;1266;73922;-63
2023/06/04 03:47:59;;;;;;;4.80;2.30;;;;;;;5.53;69.90;101128.73;104730;1274;69155;-63
2023/06/04 03:50:29;;;;;;;5.50;2.40;;;;;;;5.58;69.99;101129.73;105008;1260;69713;-63
2023/06/04 03:52:58;;;;;;;3.40;2.60;;;;;;;5.65;70.14;101131.27;104777;1265;75121;-64
2023/06/04 03:55:26;;;;;;;5.60;2.50;;;;;;;5.74;70.14;101130.70;104691;1267;84053;-63
2023/06/04 03:57:55;;;;;;;4.00;2.30;;;;;;;5.81;70.14;101131.70;104996;1264;73680;-63
2023/06/04 04:00:24;;;;;;;7.10;2.70;;;;;;;5.88;70.24;101132.53;105021;1261;69212;-63
2023/06/04 04:02:53;;;;;;;4.40;2.70;;;;;;;5.96;70.57;101132.34;105058;1261;69246;-63
2023/06/04 04:05:24;;;;;;;5.80;2.80;;;;;;;6.06;70.52;101134.36;104932;1266;74882;-63
2023/06/04 04:07:53;;;;;;;5.20;2.60;;;;;;;6.16;70.81;101131.16;105052;1264;82384;-63
2023/06/04 04:10:25;;;;;;;4.50;2.50;;;;;;;6.28;70.73;101134.89;104778;1265;73288;-63
2023/06/04 04:12:54;;;;;;;4.50;2.60;;;;;;;6.40;70.80;101134.63;104870;1261;69189;-63
2023/06/04 04:15:23;;;;;;;7.00;3.30;;;;;;;6.52;70.90;101132.79;104831;1261;69146;-63
2023/06/04 04:17:52;;;;;;;6.10;2.80;;;;;;;6.64;70.87;101134.42;105086;1273;73120;-63
2023/06/04 04:20:21;;;;;;;5.00;3.30;;;;;;;6.78;71.05;101128.38;105055;1263;82375;-63
2023/06/04 04:22:54;;;;;;;6.50;3.60;;;;;;;6.94;71.05;101126.83;104845;1267;74192;-63
2023/06/04 04:25:22;;;;;;;6.60;3.50;;;;;;;7.07;70.64;101127.38;104957;1260;69114;-64
2023/06/04 04:27:51;;;;;;;8.10;4.00;;;;;;;7.24;70.47;101128.07;105087;1260;69116;-63
2023/06/04 04:30:20;;;;;;;7.20;3.90;;;;;;;7.38;70.31;101129.29;104956;1260;74568;-63
2023/06/04 04:32:50;;;;;;;7.80;3.50;;;;;;;7.52;69.99;101126.70;105006;1263;83122;-64
2023/06/04 04:35:24;;;;;;;5.80;3.10;;;;;;;7.66;69.57;101131.02;104897;1266;74145;-64
2023/06/04 04:37:55;;;;;;;6.40;3.00;;;;;;;7.77;69.44;101130.70;104978;1259;69235;-64
2023/06/04 04:40:24;;;;;;;5.50;3.30;;;;;;;7.90;69.53;101128.08;104959;1261;69249;-64
2023/06/04 04:42:55;;;;;;;6.20;3.40;;;;;;;8.03;69.26;101128.75;104927;1266;74875;-64
2023/06/04 04:45:24;;;;;;;6.30;3.30;;;;;;;8.12;69.34;101130.20;105081;1260;83192;-64
2023/06/04 04:47:54;;;;;;;5.70;3.30;;;;;;;8.22;69.09;101130.73;104988;1263;74057;-64
2023/06/04 04:50:22;;;;;;;7.30;3.80;;;;;;;8.31;68.98;101131.48;105027;1263;69205;-64
2023/06/04 04:52:51;;;;;;;6.80;3.50;;;;;;;8.42;68.83;101139.48;105062;1264;69151;-64
2023/06/04 04:55:20;;;;;;;7.90;3.30;;;;;;;8.55;68.83;101134.95;105115;1260;74715;-63
2023/06/04 04:57:49;;;;;;;9.90;3.30;;;;;;;8.67;68.92;101135.78;105078;1263;83143;-64
2023/06/04 05:00:18;;;;;;;7.60;3.40;;;;;;;8.79;69.03;101138.36;105014;1263;73097;-64
2023/06/04 05:02:48;;;;;;;5.20;3.00;;;;;;;8.92;68.86;101139.85;105001;1264;69132;-64
2023/06/04 05:05:17;;;;;;;6.20;3.10;;;;;;;9.04;68.56;101137.89;105052;1263;69142;-64
2023/06/04 05:07:46;;;;;;;5.40;3.00;;;;;;;9.15;68.86;101139.95;104919;1264;74311;-64
2023/06/04 05:10:15;;;;;;;6.90;3.40;;;;;;;9.26;68.79;101143.21;105006;1263;83532;-64
2023/06/04 05:12:57;;;;;;;5.60;3.20;;;;;;;9.36;68.38;101144.23;105090;1263;73163;-64
2023/06/04 05:15:31;;;;;;;6.50;3.40;;;;;;;9.47;68.58;101145.41;105039;1260;69024;-64
2023/06/04 05:18:03;;;;;;;5.70;2.80;;;;;;;9.58;68.12;101143.09;105123;1263;69128;-64
2023/06/04 05:20:37;;;;;;;5.00;2.80;;;;;;;9.72;67.81;101144.89;105084;1263;75357;-61
2023/06/04 05:23:08;;;;;;;6.90;3.40;;;;;;;9.83;66.67;101145.52;104791;1261;82482;-64
2023/06/04 05:25:37;;;;;;;5.30;3.40;;;;;;;9.90;66.38;101145.36;105071;1261;73656;-64
2023/06/04 05:28:06;;;;;;;5.60;3.10;;;;;;;9.99;66.48;101138.52;105063;1266;69185;-64
2023/06/04 05:30:35;;;;;;;9.20;3.30;;;;;;;10.13;66.75;101140.13;104971;1267;69624;-64
2023/06/04 05:33:04;;;;;;;7.00;3.30;;;;;;;10.28;66.59;101138.23;104955;1266;74615;-64
2023/06/04 05:35:33;;;;;;;8.10;3.20;;;;;;;10.40;66.23;101142.31;104922;1265;83335;-64
2023/06/04 05:38:02;;;;;;;6.10;2.90;;;;;;;10.50;65.77;101136.83;104820;1260;72861;-64
2023/06/04 05:40:31;;;;;;;5.10;2.90;;;;;;;10.61;65.51;101143.55;104780;1265;69092;-64
2023/06/04 05:42:59;;;;;;;6.70;3.60;;;;;;;10.72;65.33;101143.80;104970;1261;69586;-64
2023/06/04 05:45:28;;;;;;;6.40;3.20;;;;;;;10.82;64.88;101146.16;104943;1260;73951;-64
2023/06/04 05:47:56;;;;;;;5.80;3.20;;;;;;;10.90;64.65;101146.80;104858;1265;83514;-64
2023/06/04 05:50:26;;;;;;;4.90;3.00;;;;;;;11.00;64.48;101145.50;104852;1261;72658;-64
2023/06/04 05:52:56;;;;;;;5.40;2.80;;;;;;;11.10;64.27;101149.06;104963;1264;69198;-64
2023/06/04 05:55:25;;;;;;;5.00;2.40;;;;;;;11.23;64.02;101146.79;105130;1260;69137;-64
2023/06/04 05:57:53;;;;;;;3.40;2.30;;;;;;;11.34;63.24;101148.22;104955;1262;272730;-64
2023/06/04 06:00:23;;;;;;;3.40;2.10;;;;;;;11.44;62.61;101149.00;105217;1264;83254;-64
2023/06/04 06:02:52;;;;;;;6.10;2.60;;;;;;;11.54;62.40;101149.59;104998;1260;72776;-64
2023/06/04 06:05:35;;;;;;;5.00;2.30;;;;;;;11.69;62.41;101150.55;105166;1260;69017;-64
2023/06/04 06:08:04;;;;;;;4.50;2.40;;;;;;;11.82;62.12;101149.46;105117;1261;69172;-64
2023/06/04 06:10:33;;;;;;;5.90;2.70;;;;;;;11.90;61.56;101150.49;104934;1261;74810;-64
2023/06/04 06:13:02;;;;;;;3.50;2.10;;;;;;;12.02;61.63;101149.21;104851;1264;82351;-64
2023/06/04 06:15:31;;;;;;;3.80;2.10;;;;;;;12.21;61.70;101147.24;105544;1258;72748;-64
2023/06/04 06:18:00;;;;;;;5.20;2.20;;;;;;;12.34;60.79;101150.14;105292;1260;69083;-64
2023/06/04 06:20:29;;;;;;;3.20;2.00;;;;;;;12.46;60.67;101147.98;105007;1265;69198;-64
2023/06/04 06:23:00;;;;;;;5.60;2.10;;;;;;;12.60;60.54;101149.13;105256;1262;73864;-64
2023/06/04 06:25:28;;;;;;;5.10;2.20;;;;;;;12.72;60.17;101149.40;105087;1261;83928;-64
2023/06/04 06:28:04;;;;;;;6.30;2.40;;;;;;;12.85;59.60;101151.26;105203;1260;74596;-64
2023/06/04 06:30:34;;;;;;;4.80;2.40;;;;;;;12.96;59.26;101152.61;105131;1260;69097;-64
2023/06/04 06:33:02;;;;;;;5.00;1.90;;;;;;;13.16;59.40;101152.63;105060;1260;69081;-64
2023/06/04 06:35:30;;;;;;;3.70;2.10;;;;;;;13.34;58.33;101153.06;105039;1264;72851;-64
2023/06/04 06:37:58;;;;;;;4.90;2.20;;;;;;;13.45;57.46;101152.52;105131;1261;83375;-64
2023/06/04 06:40:27;;;;;;;5.00;2.10;;;;;;;13.53;57.51;101152.34;105029;1263;73385;-65
2023/06/04 06:42:55;;;;;;;5.90;1.90;;;;;;;13.66;57.30;101158.04;105356;1263;69078;-64
2023/06/04 06:45:24;;;;;;;3.80;2.20;;;;;;;13.75;56.58;101159.42;105100;1259;69186;-65
2023/06/04 06:47:52;;;;;;;5.50;2.30;;;;;;;13.87;56.67;101162.67;105095;1261;74588;-65
2023/06/04 06:50:21;;;;;;;4.60;2.00;;;;;;;13.99;56.38;101163.59;104952;1262;82525;-65
2023/06/04 06:52:49;;;;;;;5.30;2.50;;;;;;;14.10;56.21;101161.42;108686;1260;73392;-61
2023/06/04 06:55:17;;;;;;;2.50;2.00;;;;;;;14.24;56.17;101161.38;105157;1261;69205;-62
2023/06/04 06:57:46;;;;;;;3.70;1.80;;;;;;;14.40;55.95;101161.42;106008;1260;69341;-61
2023/06/04 07:00:15;;;;;;;3.70;1.90;;;;;;;14.57;55.85;101159.55;105209;1260;74860;-60
2023/06/04 07:02:43;;;;;;;5.20;2.00;;;;;;;14.68;55.57;101161.36;105243;1261;83754;-60
2023/06/04 07:05:15;;;;;;;5.30;2.30;;;;;;;14.82;55.32;101164.64;105182;1260;73585;-61
2023/06/04 07:07:43;;;;;;;5.60;2.20;;;;;;;14.93;55.22;101165.04;105141;1260;69100;-63
2023/06/04 07:10:13;;;;;;;3.40;1.80;;;;;;;15.07;55.00;101166.05;105131;1260;69185;-60
2023/06/04 07:12:41;;;;;;;5.50;2.00;;;;;;;15.19;54.61;101163.05;105234;1260;74674;-61
2023/06/04 07:15:10;;;;;;;3.80;2.00;;;;;;;15.33;54.43;101162.27;105244;1261;83259;-61
2023/06/04 07:17:39;;;;;;;2.50;1.50;;;;;;;15.44;53.44;101163.52;105292;1261;72620;-62
2023/06/04 07:20:09;;;;;;;3.60;1.60;;;;;;;15.51;52.83;101167.23;105182;1260;69088;-62
2023/06/04 07:22:37;;;;;;;3.50;1.70;;;;;;;15.59;52.27;101164.92;105238;1260;69113;-63
2023/06/04 07:25:06;;;;;;;3.70;1.00;;;;;;;15.71;52.22;101165.48;105328;1260;74321;-62
2023/06/04 07:27:35;;;;;;;2.30;1.10;;;;;;;15.81;51.19;101171.02;105232;1261;82613;-64
2023/06/04 07:30:04;;;;;;;4.00;1.60;;;;;;;15.85;50.74;101169.96;105221;1264;73738;-64
2023/06/04 07:32:33;;;;;;;2.40;1.40;;;;;;;15.93;50.85;101172.94;105150;1260;69202;-64
2023/06/04 07:35:02;;;;;;;6.10;1.70;;;;;;;16.04;50.57;101170.48;105045;1264;69101;-64
2023/06/04 07:37:31;;;;;;;3.40;1.10;;;;;;;16.17;50.40;101170.19;105200;1261;73903;-64
2023/06/04 07:39:59;;;;;;;2.70;1.40;;;;;;;16.29;49.90;101171.55;105243;1259;83170;-64
2023/06/04 07:42:28;;;;;;;5.90;1.40;;;;;;;16.40;50.05;101170.48;105191;1260;73367;-63
2023/06/04 07:44:56;;;;;;;4.20;1.50;;;;;;;16.58;50.12;101170.34;105361;1258;69308;-64
2023/06/04 07:47:25;;;;;;;5.30;1.30;;;;;;;16.74;49.87;101167.96;105112;1261;69059;-64
2023/06/04 07:49:53;;;;;;;2.90;1.50;;;;;;;16.87;49.23;101165.38;105396;1262;73971;-63
2023/06/04 07:52:30;;;;;;;5.30;1.40;;;;;;;16.92;48.63;101165.48;105177;1262;83204;-64
2023/06/04 07:54:59;;;;;;;3.90;1.40;;;;;;;16.91;47.52;101164.82;105263;1262;72650;-64
2023/06/04 07:57:28;;;;;;;3.90;1.10;;;;;;;16.91;47.29;101168.32;105124;1259;69126;-64
2023/06/04 07:59:57;;;;;;;2.10;1.20;;;;;;;16.96;46.92;101165.27;105188;1263;69135;-63
2023/06/04 08:02:26;;;;;;;2.50;1.20;;;;;;;17.05;47.04;101169.20;105219;1260;74759;-63
2023/06/04 08:04:54;;;;;;;4.40;1.30;;;;;;;17.16;46.91;101166.52;105334;1261;83784;-63
2023/06/04 08:07:23;;;;;;;2.00;0.80;;;;;;;17.21;46.08;101159.71;105113;1260;72823;-63
2023/06/04 08:09:51;;;;;;;4.00;1.00;;;;;;;17.21;45.70;101160.09;105369;1261;69139;-63
2023/06/04 08:12:20;;;;;;;1.40;0.90;;;;;;;17.22;45.39;101161.42;105229;1260;69298;-64
2023/06/04 08:14:50;;;;;;;3.30;1.20;;;;;;;17.22;44.69;101158.45;105309;1261;75005;-62
2023/06/04 08:17:18;;;;;;;1.50;1.00;;;;;;;17.21;44.24;101160.80;105264;1259;84797;-64
2023/06/04 08:19:47;;;;;;;3.50;1.10;;;;;;;17.25;44.08;101163.90;105147;1262;72473;-64
2023/06/04 08:22:15;;;;;;;3.00;1.30;;;;;;;17.29;43.95;101166.55;105232;1260;69166;-64
2023/06/04 08:24:43;;;;;;;4.70;1.30;;;;;;;17.35;44.07;101166.56;105162;1260;69168;-62
2023/06/04 08:27:12;;;;;;;3.10;1.20;;;;;;;17.42;43.94;101164.27;105051;1263;73860;-63
2023/06/04 08:29:40;;;;;;;3.80;1.10;;;;;;;17.43;43.64;101161.73;105268;1260;83595;-63
2023/06/04 08:32:09;;;;;;;6.00;1.80;;;;;;;17.48;43.60;101158.11;105214;1260;73709;-63
2023/06/04 08:34:37;;;;;;;4.30;1.40;;;;;;;17.58;43.41;101154.16;105141;1260;69094;-63
2023/06/04 08:37:05;;;;;;;4.20;1.70;;;;;;;17.64;43.38;101153.67;105002;1261;69156;-62
2023/06/04 08:39:34;;;;;;;4.50;1.40;;;;;;;17.74;43.11;101152.60;105154;1260;74658;-63
2023/06/04 08:42:29;;;;;;;3.90;1.70;;;;;;;17.79;42.79;101153.61;105139;1259;83176;-64
2023/06/04 08:44:58;;;;;;;3.50;1.00;;;;;;;17.99;43.71;101159.36;105131;1262;72902;-64
2023/06/04 08:47:29;;;;;;;2.10;1.10;;;;;;;18.36;43.46;101155.36;105200;1260;69540;-64
2023/06/04 08:50:02;;;;;;;3.30;0.90;;;;;;;18.67;42.46;101153.18;105242;1259;69516;-64
2023/06/04 08:52:30;;;;;;;2.90;1.40;;;;;;;18.93;41.78;101158.80;105305;1260;74879;-64
2023/06/04 08:54:59;;;;;;;2.30;1.20;;;;;;;19.18;41.22;101161.66;105261;1259;83629;-64
2023/06/04 08:57:30;;;;;;;5.40;1.20;;;;;;;19.38;40.52;101161.70;105302;1259;73434;-64
2023/06/04 08:59:59;;;;;;;2.70;1.30;;;;;;;19.53;40.28;101160.95;105125;1260;69122;-63
2023/06/04 09:02:28;;;;;;;2.50;0.90;;;;;;;19.67;39.65;101165.07;105093;1262;69208;-65
2023/06/04 09:04:57;;;;;;;1.10;0.90;;;;;;;19.80;38.86;101166.01;105065;1260;73876;-65
2023/06/04 09:07:25;;;;;;;5.70;1.20;;;;;;;19.90;38.42;101164.50;105042;1260;82411;-65
2023/06/04 09:09:54;;;;;;;5.70;1.40;;;;;;;20.05;38.58;101171.31;105207;1260;72735;-65
2023/06/04 09:12:46;;;;;;;2.60;1.00;;;;;;;20.20;37.70;101169.34;105155;1258;69095;-66
2023/06/04 09:15:15;;;;;;;1.50;0.90;;;;;;;20.33;37.34;101168.80;105111;1260;69116;-65
2023/06/04 09:17:43;;;;;;;2.30;1.10;;;;;;;20.44;37.03;101169.33;105010;1260;74807;-65
2023/06/04 09:20:19;;;;;;;2.20;1.10;;;;;;;20.53;36.12;101171.59;106918;1259;82875;-66
2023/06/04 09:22:47;;;;;;;5.90;1.00;;;;;;;20.49;35.58;101160.10;105113;1258;73678;-65
2023/06/04 09:25:25;;;;;;;4.50;1.00;;;;;;;20.46;35.78;101161.53;105150;1258;69121;-65
2023/06/04 09:27:57;;;;;;;3.30;1.00;;;;;;;20.62;35.96;101166.19;105054;1259;69659;-65
2023/06/04 09:30:25;;;;;;;2.60;1.00;;;;;;;20.83;35.46;101162.10;105089;1260;74936;-65
2023/06/04 09:32:53;;;;;;;1.20;0.70;;;;;;;20.96;34.65;101160.91;105087;1262;83601;-64
2023/06/04 09:35:22;;;;;;;2.90;0.80;;;;;;;20.98;34.47;101165.95;104911;1262;72398;-65
2023/06/04 09:37:52;;;;;;;1.50;0.80;;;;;;;21.07;34.49;101160.10;104979;1260;69135;-63
2023/06/04 09:40:22;;;;;;;2.30;0.80;;;;;;;21.26;34.49;101160.09;105061;1262;69181;-66
2023/06/04 09:42:54;;;;;;;2.50;1.00;;;;;;;21.46;34.25;101162.80;105062;1262;73982;-66
2023/06/04 09:45:35;;;;;;;2.20;0.80;;;;;;;21.64;33.50;101155.64;105068;1262;83378;-65
2023/06/04 09:48:05;;;;;;;2.70;1.00;;;;;;;21.72;33.14;101152.73;105057;1260;72694;-67
2023/06/04 09:50:38;;;;;;;2.30;1.00;;;;;;;21.82;32.89;101151.48;104909;1262;69180;-66
2023/06/04 09:53:15;;;;;;;1.90;0.70;;;;;;;21.96;32.69;101154.06;105088;1262;69250;-66
2023/06/04 09:55:43;;;;;;;4.50;0.90;;;;;;;22.09;32.93;101150.98;105111;1261;74806;-66
2023/06/04 09:58:13;;;;;;;0.90;0.70;;;;;;;22.20;32.60;101150.13;105030;1260;82987;-66
2023/06/04 10:00:41;;;;;;;2.70;0.80;;;;;;;22.27;32.04;101149.63;105077;1260;72886;-67
2023/06/04 10:03:15;;;;;;;2.40;1.00;;;;;;;22.33;31.53;101146.50;105130;1262;69240;-63
2023/06/04 10:05:44;;;;;;;2.00;0.80;;;;;;;22.37;31.25;101145.33;105071;1262;69184;-66
2023/06/04 10:08:13;;;;;;;2.70;1.00;;;;;;;22.28;30.99;101141.23;104998;1260;74918;-65
2023/06/04 10:10:42;;;;;;;1.10;0.70;;;;;;;22.21;30.87;101133.67;105058;1261;83776;-62
2023/06/04 10:13:15;;;;;;;3.40;0.90;;;;;;;22.26;30.94;101136.20;105104;1262;72326;-65
2023/06/04 10:15:45;;;;;;;3.40;0.80;;;;;;;22.46;31.91;101140.06;105071;1260;69128;-66
2023/06/04 10:18:15;;;;;;;2.10;0.90;;;;;;;22.74;31.66;101137.92;105131;1262;69125;-66
2023/06/04 10:20:44;;;;;;;2.70;1.10;;;;;;;22.97;31.33;101140.56;105077;1262;74810;-66
2023/06/04 10:23:12;;;;;;;1.80;1.00;;;;;;;23.16;31.03;101140.41;104974;1260;81623;-66
2023/06/04 10:25:41;;;;;;;2.10;0.70;;;;;;;23.33;30.79;101139.44;105092;1262;73898;-66
2023/06/04 10:28:09;;;;;;;1.50;0.80;;;;;;;23.54;30.48;101139.55;105112;1260;69184;-66
2023/06/04 10:30:38;;;;;;;1.30;0.90;;;;;;;23.82;30.50;101139.07;105071;1260;69196;-67
2023/06/04 10:33:06;;;;;;;2.00;0.90;;;;;;;24.21;30.06;101133.06;105099;1260;74746;-67
2023/06/04 10:35:36;;;;;;;3.90;0.70;;;;;;;24.46;29.31;101129.33;105174;1261;82756;-67
2023/06/04 10:38:06;;;;;;;1.50;0.60;;;;;;;24.72;28.96;101129.81;105129;1259;72843;-67
2023/06/04 10:40:36;;;;;;;2.50;0.90;;;;;;;24.91;28.48;101128.18;105127;1260;69125;-67
2023/06/04 10:43:05;;;;;;;4.20;1.00;;;;;;;25.17;28.61;101126.52;105117;1262;69084;-67
2023/06/04 10:45:34;;;;;;;1.40;0.80;;;;;;;25.45;28.07;101123.87;105087;1260;74953;-67
2023/06/04 10:48:05;;;;;;;1.90;0.80;;;;;;;25.66;27.72;101124.00;105133;1261;82530;-67
2023/06/04 10:50:34;;;;;;;1.50;0.70;;;;;;;25.82;27.26;101125.98;105092;1258;73932;-67
2023/06/04 10:53:03;;;;;;;2.90;0.80;;;;;;;26.03;26.96;101118.41;105098;1260;69125;-67
2023/06/04 10:55:31;;;;;;;3.70;0.70;;;;;;;26.33;26.90;101119.94;105116;1260;69179;-68
2023/06/04 10:58:01;;;;;;;2.60;0.80;;;;;;;26.57;26.55;101117.17;105115;1261;73986;-68
2023/06/04 11:00:46;;;;;;;2.60;0.70;;;;;;;26.88;26.66;101117.74;105118;1260;83322;-69
2023/06/04 11:03:15;;;;;;;2.30;0.90;;;;;;;27.06;26.13;101120.77;105097;1261;73404;-68
2023/06/04 11:05:46;;;;;;;1.50;1.00;;;;;;;27.19;25.87;101114.44;105127;1263;69193;-68
2023/06/04 11:08:14;;;;;;;2.90;0.80;;;;;;;27.45;25.58;101114.21;105106;1262;69206;-68
2023/06/04 11:10:44;;;;;;;2.70;1.00;;;;;;;27.63;25.66;101117.30;105128;1262;73900;-69
2023/06/04 11:13:13;;;;;;;1.40;0.70;;;;;;;27.74;25.52;101113.52;105086;1260;82508;-68
2023/06/04 11:15:46;;;;;;;2.20;0.80;;;;;;;28.03;25.34;101112.89;105070;1260;73445;-69
2023/06/04 11:18:19;;;;;;;1.80;0.80;;;;;;;28.36;24.69;101110.09;105121;1262;69222;-69
2023/06/04 11:20:50;;;;;;;1.80;0.80;;;;;;;28.56;24.33;101114.25;105115;1260;69126;-68
2023/06/04 11:23:18;;;;;;;1.30;0.50;;;;;;;28.75;24.20;101108.97;105083;1260;74787;-69
2023/06/04 11:25:52;;;;;;;2.60;0.90;;;;;;;28.88;23.73;101108.95;105082;1262;83117;-68
2023/06/04 11:28:23;;;;;;;4.40;0.70;;;;;;;29.00;23.73;101109.33;105085;1259;72283;-69
2023/06/04 11:30:59;;;;;;;2.40;0.80;;;;;;;29.10;23.32;101104.25;105087;1260;69199;-69
2023/06/04 11:33:28;;;;;;;4.60;1.40;;;;;;;29.16;23.05;101102.55;105081;1262;69193;-69